Eferding, Austria
Current Conditions -  °F | °C
As of 7:50 PM on Monday 24 Nov 2014 (Local Time) from LOWL Reporting Station
Broken Clouds Broken Clouds  
Wind Chill: 41°   Ceiling: 800
Heat Index: 41°   Visibility: 4mi
Dew Point: 37°   Wind: 2mph
Humidity: 87%   Direction: NA
Pressure: 30.27"   Gusts: NA
Location:  48.31°N, 14.02°E
Report Text: LOWL 241750Z VRB02KT 7000 FEW007 BKN008 05/03 Q1025 NOSIG
Loading
Personal Weather Stations






























Interactive Weather Map New forecast layout! Learn more

10-Day Weather Forecast

Advertisements
Track Severe Weather on mobile